createdAt,value
2023-11-25T00:02:22.270Z,3.65
2023-11-25T00:07:24.200Z,3.71
2023-11-25T00:12:23.132Z,3.64
2023-11-25T00:17:24.174Z,3.60
2023-11-25T00:22:25.246Z,3.65
2023-11-25T00:27:26.233Z,3.68
2023-11-25T00:32:27.243Z,3.60
2023-11-25T00:37:28.270Z,3.52
2023-11-25T00:42:29.406Z,3.50
2023-11-25T00:47:30.443Z,3.44
2023-11-25T00:52:31.583Z,3.44
2023-11-25T00:57:32.594Z,3.31
2023-11-25T01:02:33.753Z,3.27
2023-11-25T01:07:34.842Z,3.03
2023-11-25T01:12:35.802Z,3.03
2023-11-25T01:17:36.845Z,3.13
2023-11-25T01:22:36.873Z,3.02
2023-11-25T01:27:37.819Z,2.88
2023-11-25T01:32:38.873Z,2.85
2023-11-25T01:37:39.855Z,3.05
2023-11-25T01:42:40.753Z,3.13
2023-11-25T01:47:41.847Z,3.25
2023-11-25T01:52:43.926Z,3.33
2023-11-25T01:57:42.851Z,3.40
2023-11-25T02:02:44.208Z,3.46
2023-11-25T02:07:43.821Z,3.46
2023-11-25T02:12:42.890Z,3.53
2023-11-25T02:17:44.022Z,3.46
2023-11-25T02:22:45.036Z,3.25
2023-11-25T02:27:46.014Z,3.13
2023-11-25T02:32:45.971Z,2.95
2023-11-25T02:37:47.047Z,2.77
2023-11-25T02:42:48.010Z,2.82
2023-11-25T02:47:49.085Z,2.89
2023-11-25T02:52:50.137Z,3.12
2023-11-25T02:57:50.976Z,3.23
2023-11-25T03:02:52.005Z,3.33
2023-11-25T03:07:53.935Z,3.31
2023-11-25T03:12:52.958Z,3.31
2023-11-25T03:17:53.974Z,3.36
2023-11-25T03:22:55.926Z,3.33
2023-11-25T03:27:54.900Z,3.18
2023-11-25T03:32:56.106Z,2.34
2023-11-25T03:37:57.046Z,1.83
2023-11-25T03:42:58.049Z,1.71
2023-11-25T03:47:59.026Z,1.65
2023-11-25T03:52:59.946Z,1.91
2023-11-25T03:58:00.931Z,2.81
2023-11-25T04:03:02.077Z,2.74
2023-11-25T04:08:03.045Z,2.82
2023-11-25T04:13:04.005Z,2.84
2023-11-25T04:18:05.035Z,2.98
2023-11-25T04:23:06.022Z,2.91
2023-11-25T04:28:07.018Z,2.94
2023-11-25T04:33:08.138Z,3.03
2023-11-25T04:38:09.114Z,2.85
2023-11-25T04:43:10.136Z,1.98
2023-11-25T04:48:12.436Z,1.83
2023-11-25T04:53:11.454Z,1.91
2023-11-25T04:58:12.502Z,2.17
2023-11-25T05:03:17.340Z,1.93
2023-11-25T05:08:14.333Z,1.79
2023-11-25T05:13:17.054Z,1.69
2023-11-25T05:18:16.249Z,1.72
2023-11-25T05:23:17.221Z,1.75
2023-11-25T05:28:18.282Z,1.79
2023-11-25T05:33:19.266Z,1.89
2023-11-25T05:38:20.293Z,1.83
2023-11-25T05:43:21.304Z,1.90
2023-11-25T05:48:22.364Z,1.90
2023-11-25T05:53:23.404Z,1.87
2023-11-25T05:58:24.502Z,1.94
2023-11-25T06:03:29.471Z,1.98
2023-11-25T06:08:26.369Z,1.97
2023-11-25T06:13:27.444Z,2.02
2023-11-25T06:18:28.544Z,2.08
2023-11-25T06:23:29.545Z,2.01
2023-11-25T06:28:30.607Z,1.99
2023-11-25T06:38:32.609Z,2.04
2023-11-25T06:43:33.689Z,1.98
2023-11-25T06:48:34.617Z,2.08
2023-11-25T06:53:35.632Z,2.06
2023-11-25T06:58:36.706Z,2.10
2023-11-25T07:03:52.469Z,2.09
2023-11-25T07:08:44.515Z,2.12
2023-11-25T07:13:37.704Z,2.09
2023-11-25T07:18:38.621Z,2.04
2023-11-25T07:23:40.566Z,2.09
2023-11-25T07:28:39.521Z,2.16
2023-11-25T07:33:40.498Z,2.26
2023-11-25T07:38:41.493Z,2.27
2023-11-25T07:43:42.844Z,2.23
2023-11-25T07:48:42.810Z,2.31
2023-11-25T07:53:43.861Z,2.33
2023-11-25T07:58:44.950Z,2.27
2023-11-25T08:03:46.006Z,2.19
2023-11-25T08:08:47.016Z,2.08
2023-11-25T08:13:47.984Z,2.04
2023-11-25T08:18:48.913Z,2.04
2023-11-25T08:23:49.887Z,2.04
2023-11-25T08:28:50.037Z,2.08
2023-11-25T08:33:50.943Z,2.08
2023-11-25T08:38:51.984Z,1.85
2023-11-25T08:43:53.151Z,1.39
2023-11-25T08:48:54.193Z,0.96
2023-11-25T08:53:55.225Z,0.90
2023-11-25T08:59:06.132Z,0.76
2023-11-25T09:03:57.135Z,0.45
2023-11-25T09:08:58.128Z,0.65
2023-11-25T09:13:59.195Z,0.78
2023-11-25T09:19:00.682Z,0.83
2023-11-25T09:24:01.050Z,0.94
2023-11-25T09:29:00.172Z,1.06
2023-11-25T09:34:01.240Z,1.32
2023-11-25T09:39:03.104Z,1.69
2023-11-25T09:44:02.138Z,1.93
2023-11-25T09:49:03.187Z,1.94
2023-11-25T09:54:04.148Z,1.44
2023-11-25T09:59:05.037Z,1.85
2023-11-25T10:04:06.181Z,2.08
2023-11-25T10:09:07.222Z,2.06
2023-11-25T10:14:08.312Z,2.53
2023-11-25T10:19:09.813Z,3.25
2023-11-25T10:24:09.740Z,3.44
2023-11-25T10:29:08.760Z,3.24
2023-11-25T10:34:09.727Z,3.25
2023-11-25T10:39:10.579Z,3.05
2023-11-25T10:44:12.503Z,2.85
2023-11-25T10:49:11.500Z,3.13
2023-11-25T10:54:12.577Z,3.31
2023-11-25T10:59:13.583Z,3.42
2023-11-25T11:04:14.528Z,3.36
2023-11-25T11:09:16.365Z,3.70
2023-11-25T11:14:15.519Z,3.78
2023-11-25T11:19:16.564Z,3.85
2023-11-25T11:24:17.541Z,3.78
2023-11-25T11:29:18.586Z,3.72
2023-11-25T11:34:19.560Z,3.78
2023-11-25T11:39:20.491Z,3.86
2023-11-25T11:44:22.482Z,3.70
2023-11-25T11:49:21.499Z,3.54
2023-11-25T11:54:22.474Z,3.52
2023-11-25T11:59:23.510Z,3.61
2023-11-25T12:04:24.594Z,3.75
2023-11-25T12:09:25.676Z,3.92
2023-11-25T12:14:27.575Z,4.00
2023-11-25T12:19:26.580Z,3.97
2023-11-25T12:24:27.654Z,3.53
2023-11-25T12:29:29.012Z,3.53
2023-11-25T12:34:31.080Z,3.70
2023-11-25T12:39:30.213Z,3.78
2023-11-25T12:44:31.153Z,3.96
2023-11-25T12:49:32.148Z,3.97
2023-11-25T12:54:33.165Z,3.94
2023-11-25T12:59:34.114Z,3.90
2023-11-25T13:04:35.148Z,4.08
2023-11-25T13:09:36.108Z,4.08
2023-11-25T13:14:37.165Z,4.06
2023-11-25T13:19:38.148Z,3.92
2023-11-25T13:24:39.071Z,4.06
2023-11-25T13:29:40.000Z,3.89
2023-11-25T13:34:41.089Z,3.85
2023-11-25T13:39:42.025Z,3.88
2023-11-25T13:44:44.012Z,4.03
2023-11-25T13:49:42.070Z,3.80
2023-11-25T13:54:43.014Z,3.88
2023-11-25T13:59:44.947Z,3.85
2023-11-25T14:04:43.961Z,3.80
2023-11-25T14:09:44.912Z,3.80
2023-11-25T14:14:46.952Z,3.78
2023-11-25T14:19:46.016Z,3.86
2023-11-25T14:24:46.951Z,3.85
2023-11-25T14:29:47.875Z,3.71
2023-11-25T14:34:48.880Z,3.62
2023-11-25T14:39:55.128Z,3.53
2023-11-25T14:44:49.632Z,3.50
2023-11-25T14:49:50.718Z,3.62
2023-11-25T14:54:51.632Z,3.82
2023-11-25T14:59:52.603Z,3.92
2023-11-25T15:04:53.586Z,3.65
2023-11-25T15:09:54.566Z,3.44
2023-11-25T15:14:56.021Z,3.47
2023-11-25T15:19:55.057Z,3.44
2023-11-25T15:24:55.917Z,3.52
2023-11-25T15:29:57.910Z,3.42
2023-11-25T15:34:58.923Z,3.44
2023-11-25T15:39:58.840Z,3.39
2023-11-25T15:44:57.785Z,3.49
2023-11-25T15:49:59.819Z,3.42
2023-11-25T15:54:58.786Z,3.30
2023-11-25T15:59:59.763Z,3.34
2023-11-25T16:05:01.057Z,3.27
2023-11-25T16:10:01.963Z,3.06
2023-11-25T16:15:03.237Z,3.02
2023-11-25T16:20:04.306Z,3.12
2023-11-25T16:25:26.376Z,3.15
2023-11-25T16:30:05.442Z,3.13
2023-11-25T16:35:06.433Z,2.98
2023-11-25T16:40:08.933Z,2.98
2023-11-25T16:45:07.813Z,2.92
2023-11-25T16:50:09.151Z,2.85
2023-11-25T16:55:11.168Z,2.79
2023-11-25T17:00:10.265Z,2.85
2023-11-25T17:05:11.345Z,2.92
2023-11-25T17:10:12.311Z,3.15
2023-11-25T17:15:13.352Z,3.36
2023-11-25T17:20:14.331Z,3.09
2023-11-25T17:25:16.198Z,2.97
2023-11-25T17:30:15.266Z,3.02
2023-11-25T17:35:16.286Z,3.06
2023-11-25T17:40:17.218Z,2.88
2023-11-25T17:45:18.265Z,2.69
2023-11-25T17:50:19.291Z,2.58
2023-11-25T17:55:22.139Z,2.48
2023-11-25T18:00:21.161Z,2.55
2023-11-25T18:05:22.162Z,2.63
2023-11-25T18:10:23.236Z,2.61
2023-11-25T18:15:25.167Z,2.55
2023-11-25T18:20:24.178Z,2.58
2023-11-25T18:25:26.127Z,2.46
2023-11-25T18:30:27.035Z,2.40
2023-11-25T18:35:26.004Z,2.27
2023-11-25T18:40:27.034Z,2.26
2023-11-25T18:45:28.169Z,2.30
2023-11-25T18:50:29.264Z,2.34
2023-11-25T18:55:31.494Z,2.37
2023-11-25T19:00:30.716Z,2.30
2023-11-25T19:05:31.752Z,2.33
2023-11-25T19:10:32.716Z,2.27
2023-11-25T19:15:33.836Z,2.26
2023-11-25T19:20:34.967Z,2.30
2023-11-25T19:25:36.426Z,2.31
2023-11-25T19:30:34.441Z,2.53
2023-11-25T19:35:35.369Z,2.34
2023-11-25T19:40:36.472Z,2.63
2023-11-25T19:45:37.455Z,2.92
2023-11-25T19:50:38.446Z,2.40
2023-11-25T19:55:39.413Z,2.37
2023-11-25T20:00:49.207Z,2.23
2023-11-25T20:05:40.693Z,2.27
2023-11-25T20:10:41.797Z,2.35
2023-11-25T20:15:42.859Z,2.61
2023-11-25T20:20:44.916Z,2.58
2023-11-25T20:25:44.626Z,2.63
2023-11-25T20:30:43.997Z,3.02
2023-11-25T20:35:45.145Z,3.24
2023-11-25T20:40:48.346Z,3.23
2023-11-25T20:45:47.242Z,3.30
2023-11-25T20:50:49.598Z,3.30
2023-11-25T20:55:49.566Z,3.21
2023-11-25T21:00:48.890Z,3.33
2023-11-25T21:05:49.832Z,3.36
2023-11-25T21:10:50.934Z,3.49
2023-11-25T21:15:52.871Z,3.53
2023-11-25T21:20:51.761Z,3.47
2023-11-25T21:25:53.670Z,3.42
2023-11-25T21:30:52.555Z,3.34
2023-11-25T21:35:54.465Z,3.49
2023-11-25T21:40:53.445Z,3.30
2023-11-25T21:45:54.549Z,3.05
2023-11-25T21:50:56.538Z,3.09
2023-11-25T21:55:55.542Z,2.95
2023-11-25T22:00:56.559Z,3.00
2023-11-25T22:06:14.590Z,3.02
2023-11-25T22:10:57.482Z,3.03
2023-11-25T22:15:58.682Z,3.07
2023-11-25T22:20:59.595Z,3.18
2023-11-25T22:26:01.565Z,3.12
2023-11-25T22:31:00.517Z,3.16
2023-11-25T22:36:01.559Z,3.25
2023-11-25T22:41:02.687Z,3.36
2023-11-25T22:46:03.727Z,3.28
2023-11-25T22:51:04.607Z,3.30
2023-11-25T22:56:05.811Z,3.46
2023-11-25T23:01:06.842Z,3.70
2023-11-25T23:06:08.732Z,3.96
2023-11-25T23:11:07.684Z,3.82
2023-11-25T23:16:08.743Z,3.76
2023-11-25T23:21:09.643Z,3.88
2023-11-25T23:26:10.703Z,3.75
2023-11-25T23:31:12.809Z,3.58
2023-11-25T23:36:11.834Z,3.76
2023-11-25T23:41:13.719Z,3.70
2023-11-25T23:46:12.660Z,3.70
2023-11-25T23:51:13.582Z,3.70
2023-11-25T23:56:14.604Z,3.67
